Time;durP1;ratioP1;P1;durP2;ratioP2;P2;SDS_P1;SDS_P2;PMS_P1;PMS_P2;Temp;Humidity;BMP_temperature;BMP_pressure;BME280_temperature;BME280_humidity;BME280_pressure;Samples;Min_cycle;Max_cycle;Signal;HPM_P1;HPM_P2
2021/07/06 00:02:01;;;;;;;10.63;6.20;;;;;;;15.13;100.00;99877.03;4979241;28;20484;-87
2021/07/06 00:04:38;;;;;;;12.50;5.63;;;;;;;15.11;100.00;99871.03;4979136;28;20054;-88
2021/07/06 00:07:07;;;;;;;12.65;6.38;;;;;;;15.14;100.00;99863.03;4979097;28;20023;-87
2021/07/06 00:09:37;;;;;;;9.82;4.35;;;;;;;15.14;100.00;99860.44;4979562;28;20034;-87
2021/07/06 00:12:15;;;;;;;8.90;4.57;;;;;;;15.18;100.00;99862.84;4979668;28;20019;-87
2021/07/06 00:14:41;;;;;;;8.35;4.97;;;;;;;15.20;100.00;99849.69;4974347;28;20102;-87
2021/07/06 00:17:19;;;;;;;5.80;3.58;;;;;;;15.22;100.00;99845.25;4974084;28;20049;-87
2021/07/06 00:19:46;;;;;;;7.70;5.53;;;;;;;15.19;100.00;99845.41;4973298;28;20449;-87
2021/07/06 00:22:12;;;;;;;9.18;5.05;;;;;;;15.22;100.00;99847.84;4973627;28;20026;-87
2021/07/06 00:24:40;;;;;;;9.30;4.75;;;;;;;15.24;100.00;99846.03;4974425;28;20041;-87
2021/07/06 00:27:11;;;;;;;9.50;4.97;;;;;;;15.23;100.00;99843.47;4973827;28;20411;-88
2021/07/06 00:29:48;;;;;;;7.18;4.30;;;;;;;15.22;100.00;99839.19;4974551;28;20027;-88
2021/07/06 00:32:13;;;;;;;12.68;5.50;;;;;;;15.19;100.00;99840.16;4974671;28;20031;-88
2021/07/06 00:34:38;;;;;;;9.95;4.63;;;;;;;15.18;100.00;99846.31;4973957;28;20066;-88
2021/07/06 00:37:07;;;;;;;9.15;4.78;;;;;;;15.17;100.00;99849.84;4975088;28;20026;-88
2021/07/06 00:39:39;;;;;;;6.30;3.92;;;;;;;15.15;100.00;99844.69;4976545;28;20130;-88
2021/07/06 00:42:11;;;;;;;11.35;5.38;;;;;;;15.17;100.00;99844.63;4977554;28;20490;-88
2021/07/06 00:44:37;;;;;;;9.68;3.95;;;;;;;15.14;100.00;99840.38;4978277;28;20535;-88
2021/07/06 00:47:15;;;;;;;7.57;4.05;;;;;;;15.16;100.00;99835.09;4976301;28;20054;-87
2021/07/06 00:49:41;;;;;;;8.20;4.65;;;;;;;15.17;100.00;99835.00;4976503;28;20023;-87
2021/07/06 00:52:12;;;;;;;7.57;3.13;;;;;;;15.15;100.00;99830.81;4976263;28;20026;-87
2021/07/06 00:54:40;;;;;;;9.35;3.20;;;;;;;15.14;100.00;99840.38;4976949;28;20065;-88
2021/07/06 00:57:09;;;;;;;8.15;3.97;;;;;;;15.18;100.00;99847.16;4975767;28;20039;-87
2021/07/06 00:59:43;;;;;;;6.65;3.90;;;;;;;15.15;100.00;99842.09;4976845;28;20038;-88
2021/07/06 01:02:11;;;;;;;7.53;4.43;;;;;;;15.15;100.00;99825.56;4975796;28;20511;-87
2021/07/06 01:04:47;;;;;;;8.50;3.08;;;;;;;15.10;100.00;99817.13;4976534;28;20037;-87
2021/07/06 01:07:19;;;;;;;10.82;4.75;;;;;;;15.12;100.00;99820.50;4975734;28;20034;-87
2021/07/06 01:09:44;;;;;;;9.73;4.50;;;;;;;15.14;100.00;99819.47;4975606;28;20039;-87
2021/07/06 01:12:32;;;;;;;;;;;;;;;;;;;;;
2021/07/06 01:15:05;;;;;;;8.23;3.65;;;;;;;15.12;100.00;99820.50;4977419;28;20026;-87
2021/07/06 01:17:39;;;;;;;8.68;3.80;;;;;;;15.11;100.00;99824.00;4975958;28;20109;-88
2021/07/06 01:20:35;;;;;;;7.47;4.10;;;;;;;15.11;100.00;99816.19;4975847;28;20034;-87
2021/07/06 01:23:16;;;;;;;7.50;3.45;;;;;;;15.10;100.00;99817.13;4971419;28;20483;-87
2021/07/06 01:25:52;;;;;;;7.65;3.45;;;;;;;15.11;100.00;99811.78;4976436;28;20372;-88
2021/07/06 01:28:42;;;;;;;8.75;3.63;;;;;;;15.10;100.00;99801.44;4975448;28;20043;-88
2021/07/06 01:31:07;;;;;;;6.40;3.35;;;;;;;15.11;100.00;99793.50;4974683;28;20483;-88
2021/07/06 01:33:42;;;;;;;6.28;3.10;;;;;;;15.13;100.00;99794.28;4975196;28;20031;-87
2021/07/06 01:36:30;;;;;;;16.13;2.90;;;;;;;15.14;100.00;99802.97;4975898;28;20415;-87
2021/07/06 01:38:55;;;;;;;9.88;2.80;;;;;;;15.07;100.00;99798.97;4976043;28;20113;-87
2021/07/06 01:41:27;;;;;;;11.73;3.20;;;;;;;15.06;100.00;99790.31;4975838;28;20057;-87
2021/07/06 01:43:53;;;;;;;7.57;3.20;;;;;;;15.05;100.00;99795.59;4975391;28;20030;-87
2021/07/06 01:46:18;;;;;;;6.10;3.13;;;;;;;15.01;100.00;99792.28;4976841;28;20041;-87
2021/07/06 01:48:43;;;;;;;8.85;2.90;;;;;;;14.99;100.00;99793.28;4975987;28;20030;-87
2021/07/06 01:51:11;;;;;;;9.00;3.45;;;;;;;15.03;100.00;99781.78;4974483;28;20479;-87
2021/07/06 01:53:37;;;;;;;7.60;3.33;;;;;;;15.02;100.00;99780.91;4974905;28;20066;-87
2021/07/06 01:56:06;;;;;;;8.43;3.42;;;;;;;15.02;100.00;99782.69;4974874;28;20412;-87
2021/07/06 01:58:37;;;;;;;7.32;3.03;;;;;;;14.98;100.00;99776.75;4974854;28;20392;-87
2021/07/06 02:01:14;;;;;;;7.47;3.00;;;;;;;14.99;100.00;99780.22;4974675;28;20027;-87
2021/07/06 02:03:49;;;;;;;8.40;3.08;;;;;;;15.01;100.00;99770.56;4974246;28;20039;-87
2021/07/06 02:06:22;;;;;;;7.05;2.80;;;;;;;14.98;100.00;99763.72;4974662;28;20027;-87
2021/07/06 02:08:48;;;;;;;7.20;2.83;;;;;;;15.01;100.00;99766.16;4974602;28;20054;-87
2021/07/06 02:11:13;;;;;;;10.32;3.17;;;;;;;14.97;100.00;99764.63;4974166;28;20042;-87
2021/07/06 02:13:55;;;;;;;7.40;3.30;;;;;;;15.02;100.00;99764.41;4974695;28;20081;-87
2021/07/06 02:16:21;;;;;;;6.72;2.80;;;;;;;15.01;100.00;99767.94;4975468;28;20023;-87
2021/07/06 02:18:50;;;;;;;8.85;2.90;;;;;;;15.01;100.00;99771.38;4975466;28;20027;-87
2021/07/06 02:21:15;;;;;;;9.75;2.90;;;;;;;15.00;100.00;99766.25;4974488;28;20583;-87
2021/07/06 02:23:46;;;;;;;5.20;2.60;;;;;;;14.98;100.00;99755.03;4974423;28;20026;-87
2021/07/06 02:26:18;;;;;;;8.55;2.70;;;;;;;15.03;100.00;99758.28;4974164;28;20027;-87
2021/07/06 02:28:43;;;;;;;5.28;2.85;;;;;;;15.05;100.00;99757.25;4975281;28;20030;-87
2021/07/06 02:31:17;;;;;;;6.82;3.00;;;;;;;15.05;100.00;99752.03;4974535;28;20372;-87
2021/07/06 02:33:55;;;;;;;8.57;2.67;;;;;;;15.05;100.00;99743.34;4975926;28;20033;-87
2021/07/06 02:36:20;;;;;;;5.70;2.70;;;;;;;15.04;100.00;99752.13;4974933;28;20093;-87
2021/07/06 02:39:01;;;;;;;4.82;2.60;;;;;;;15.05;100.00;99749.41;4974449;28;20121;-87
2021/07/06 02:41:37;;;;;;;8.70;2.55;;;;;;;15.03;100.00;99745.22;4974370;28;20487;-88
2021/07/06 02:44:03;;;;;;;6.88;2.55;;;;;;;15.05;100.00;99751.19;4974501;28;20125;-87
2021/07/06 02:46:28;;;;;;;7.93;3.00;;;;;;;15.05;100.00;99748.56;4975375;28;20110;-87
2021/07/06 02:49:08;;;;;;;5.45;2.20;;;;;;;15.02;100.00;99740.88;4974300;28;20464;-87
2021/07/06 02:51:35;;;;;;;6.03;2.60;;;;;;;15.03;100.00;99743.44;4974391;28;20022;-86
2021/07/06 02:54:12;;;;;;;8.75;3.35;;;;;;;15.04;100.00;99737.28;4972612;28;20495;-87
2021/07/06 02:56:51;;;;;;;8.48;2.60;;;;;;;15.02;100.00;99739.13;4974571;28;20427;-87
2021/07/06 02:59:21;;;;;;;9.02;2.72;;;;;;;15.04;100.00;99739.06;4974742;28;20035;-87
2021/07/06 03:01:58;;;;;;;9.15;2.20;;;;;;;15.06;100.00;99734.63;4975271;28;20113;-87
2021/07/06 03:04:35;;;;;;;6.72;2.63;;;;;;;15.02;100.00;99733.91;4974669;28;20034;-87
2021/07/06 03:07:06;;;;;;;12.02;3.10;;;;;;;15.02;100.00;99727.84;4974535;28;20463;-87
2021/07/06 03:09:40;;;;;;;8.30;2.50;;;;;;;15.02;100.00;99739.13;4973564;28;20066;-87
2021/07/06 03:12:26;;;;;;;;;;;;;;;;;;;;;
2021/07/06 03:14:54;;;;;;;11.68;2.83;;;;;;;15.06;100.00;99727.63;4976111;28;19920;-88
2021/07/06 03:17:31;;;;;;;6.13;2.28;;;;;;;15.02;100.00;99733.06;4973866;28;20029;-87
2021/07/06 03:19:56;;;;;;;7.53;2.90;;;;;;;15.02;100.00;99727.84;4975094;28;20034;-88
2021/07/06 03:22:25;;;;;;;4.82;2.35;;;;;;;14.98;100.00;99726.31;4973559;28;20026;-87
2021/07/06 03:24:50;;;;;;;5.20;2.28;;;;;;;14.94;100.00;99723.84;4973890;28;20022;-87
2021/07/06 03:27:22;;;;;;;5.38;2.33;;;;;;;14.95;100.00;99719.47;4973774;28;20475;-87
2021/07/06 03:29:52;;;;;;;5.85;2.33;;;;;;;14.92;100.00;99704.78;4974971;28;20454;-88
2021/07/06 03:32:26;;;;;;;9.25;2.40;;;;;;;14.90;100.00;99705.78;4973723;28;20023;-87
2021/07/06 03:35:15;;;;;;;5.95;2.92;;;;;;;14.89;100.00;99704.94;4973595;28;20066;-87
2021/07/06 03:37:40;;;;;;;8.38;2.47;;;;;;;14.88;100.00;99700.66;4881139;29;20064;-87
2021/07/06 03:40:15;;;;;;;8.52;3.00;;;;;;;14.89;100.00;99686.66;4964097;28;20444;-87
2021/07/06 03:42:46;;;;;;;4.30;2.30;;;;;;;14.94;100.00;99696.91;4973219;28;20034;-88
2021/07/06 03:45:18;;;;;;;10.95;2.83;;;;;;;14.94;100.00;99697.75;4973712;28;20019;-88
2021/07/06 03:47:50;;;;;;;7.57;2.80;;;;;;;14.95;100.00;99702.03;4972361;28;20495;-88
2021/07/06 03:50:42;;;;;;;7.53;2.45;;;;;;;14.99;100.00;99702.72;4973386;28;20085;-88
2021/07/06 03:53:15;;;;;;;7.18;2.35;;;;;;;15.01;100.00;99708.72;4968933;28;20039;-88
2021/07/06 03:55:41;;;;;;;5.60;2.60;;;;;;;15.02;100.00;99705.16;4972158;28;20122;-87
2021/07/06 03:58:12;;;;;;;5.38;2.55;;;;;;;15.05;100.00;99706.78;4974044;28;20431;-87
2021/07/06 04:00:38;;;;;;;6.63;2.55;;;;;;;15.10;100.00;99707.41;4973021;28;20104;-87
2021/07/06 04:03:06;;;;;;;7.15;2.55;;;;;;;15.12;100.00;99695.13;4973055;28;20499;-87
2021/07/06 04:05:32;;;;;;;6.30;2.05;;;;;;;15.18;100.00;99694.81;4973214;28;20030;-88
2021/07/06 04:07:57;;;;;;;6.28;2.67;;;;;;;15.23;100.00;99695.41;4972824;28;20391;-87
2021/07/06 04:10:30;;;;;;;7.45;2.45;;;;;;;15.27;100.00;99689.13;4973079;28;20022;-88
2021/07/06 04:12:55;;;;;;;11.38;2.80;;;;;;;15.34;100.00;99687.88;4973758;28;20030;-87
2021/07/06 04:15:38;;;;;;;7.40;2.50;;;;;;;15.40;100.00;99684.94;4977000;28;20090;-87
2021/07/06 04:18:15;;;;;;;4.68;2.33;;;;;;;15.46;100.00;99689.00;4977260;28;20038;-87
2021/07/06 04:20:57;;;;;;;8.25;2.85;;;;;;;15.58;100.00;99692.75;4977747;28;20026;-88
2021/07/06 04:23:28;;;;;;;8.93;2.40;;;;;;;15.70;100.00;99697.38;4977045;28;20501;-87
2021/07/06 04:26:41;;;;;;;6.30;2.70;;;;;;;15.83;100.00;99693.16;4976913;28;20483;-88
2021/07/06 04:28:56;;;;;;;8.20;2.45;;;;;;;15.87;100.00;99688.59;4972535;28;20039;-87
2021/07/06 04:31:33;;;;;;;6.15;2.13;;;;;;;15.81;100.00;99683.69;4976921;28;20095;-88
2021/07/06 04:34:08;;;;;;;3.45;1.77;;;;;;;15.85;100.00;99686.06;4977522;28;20105;-88
2021/07/06 04:37:43;;;;;;;5.95;2.25;;;;;;;15.86;100.00;99671.22;4976549;28;20224;-87
2021/07/06 04:39:37;;;;;;;5.90;2.08;;;;;;;15.92;100.00;99664.81;4973021;28;20038;-87
2021/07/06 04:42:02;;;;;;;5.28;2.00;;;;;;;16.03;100.00;99655.44;4976539;28;20399;-87
2021/07/06 04:44:31;;;;;;;4.03;1.83;;;;;;;16.08;100.00;99655.19;4977412;28;20446;-87
2021/07/06 04:47:04;;;;;;;6.15;2.35;;;;;;;16.18;100.00;99652.91;4977112;28;20117;-87
2021/07/06 04:49:40;;;;;;;6.32;1.88;;;;;;;16.18;100.00;99645.91;4976389;28;20042;-87
2021/07/06 04:52:15;;;;;;;4.60;1.85;;;;;;;16.34;100.00;99645.88;4976859;28;20034;-87
2021/07/06 04:54:40;;;;;;;7.75;2.20;;;;;;;16.38;100.00;99649.16;4977139;28;20031;-87
2021/07/06 04:57:14;;;;;;;5.05;1.90;;;;;;;16.34;100.00;99662.41;4976153;28;20019;-87
2021/07/06 04:59:48;;;;;;;7.85;2.10;;;;;;;16.55;100.00;99664.75;4975912;28;20031;-87
2021/07/06 05:02:17;;;;;;;3.97;1.88;;;;;;;16.73;100.00;99666.31;4975338;28;20037;-87
2021/07/06 05:04:42;;;;;;;5.80;1.70;;;;;;;16.76;100.00;99663.56;4976185;28;20034;-87
2021/07/06 05:07:22;;;;;;;7.53;2.03;;;;;;;16.80;100.00;99661.59;4976652;28;20371;-87
2021/07/06 05:10:02;;;;;;;4.28;1.58;;;;;;;16.75;100.00;99640.94;4974871;28;20035;-87
2021/07/06 05:12:39;;;;;;;6.35;2.00;;;;;;;17.12;100.00;99649.22;4975222;28;20491;-87
2021/07/06 05:15:06;;;;;;;6.05;1.75;;;;;;;18.01;100.00;99651.66;4976520;28;20505;-87
2021/07/06 05:18:05;;;;;;;4.90;1.88;;;;;;;18.67;100.00;99667.53;4977387;28;20475;-87
2021/07/06 05:20:40;;;;;;;7.50;1.80;;;;;;;18.83;100.00;99684.81;4976206;28;20097;-87
2021/07/06 05:23:14;;;;;;;5.72;1.83;;;;;;;18.34;100.00;99687.16;4975978;28;20509;-87
2021/07/06 05:25:42;;;;;;;;;;;;;;;18.49;100.00;99690.56;4974442;28;20042;-87
2021/07/06 05:28:11;;;;;;;6.72;1.75;;;;;;;17.96;100.00;99697.47;4975188;28;19917;-86
2021/07/06 05:30:42;;;;;;;7.03;2.15;;;;;;;17.63;100.00;99691.56;4975622;28;20542;-86
2021/07/06 05:33:15;;;;;;;7.72;1.88;;;;;;;17.55;100.00;99691.19;4976847;28;20042;-87
2021/07/06 05:35:53;;;;;;;5.10;1.40;;;;;;;17.59;100.00;99700.56;4976253;28;20027;-86
2021/07/06 05:38:19;;;;;;;5.40;1.58;;;;;;;17.55;100.00;99698.19;4975508;28;20097;-85
2021/07/06 05:40:53;;;;;;;5.43;1.70;;;;;;;17.59;100.00;99697.94;4975716;28;20034;-85
2021/07/06 05:43:22;;;;;;;3.38;1.42;;;;;;;17.64;100.00;99697.63;4977102;28;20027;-85
2021/07/06 05:45:54;;;;;;;6.57;1.60;;;;;;;17.62;100.00;99684.63;4975139;28;20063;-87
2021/07/06 05:48:23;;;;;;;5.47;1.52;;;;;;;17.82;100.00;99693.91;4976741;28;20031;-87
2021/07/06 05:50:51;;;;;;;2.80;1.33;;;;;;;17.68;100.00;99684.25;4972725;28;20039;-87
2021/07/06 05:53:22;;;;;;;4.40;1.40;;;;;;;17.76;100.00;99690.78;4974697;28;20065;-87
2021/07/06 05:55:57;;;;;;;4.90;1.70;;;;;;;17.96;100.00;99693.06;4976013;28;20077;-87
2021/07/06 05:58:35;;;;;;;5.53;2.20;;;;;;;18.45;100.00;99686.47;4973083;28;20042;-87
2021/07/06 06:01:00;;;;;;;9.95;4.43;;;;;;;18.25;100.00;99675.47;4975582;28;20057;-88
2021/07/06 06:03:37;;;;;;;9.55;4.00;;;;;;;17.99;100.00;99664.00;4975424;28;20027;-87
2021/07/06 06:06:08;;;;;;;9.98;4.00;;;;;;;17.99;100.00;99660.56;4974891;28;20121;-89
2021/07/06 06:08:46;;;;;;;6.50;3.33;;;;;;;19.65;100.00;99650.38;4974775;28;20030;-88
2021/07/06 06:11:32;;;;;;;3.55;1.40;;;;;;;20.02;100.00;99658.28;4975213;28;20050;-89
2021/07/06 06:14:04;;;;;;;3.42;1.27;;;;;;;19.70;100.00;99659.59;4975189;28;20037;-88
2021/07/06 06:16:29;;;;;;;3.33;1.50;;;;;;;20.49;100.00;99648.72;4974601;28;20039;-88
2021/07/06 06:18:55;;;;;;;3.60;1.27;;;;;;;20.67;99.07;99653.50;4975761;28;20030;-87
2021/07/06 06:21:25;;;;;;;4.93;1.13;;;;;;;21.40;98.16;99648.88;4975274;28;20117;-87
2021/07/06 06:23:53;;;;;;;5.13;1.20;;;;;;;21.77;93.48;99644.19;4976245;28;20126;-89
2021/07/06 06:26:25;;;;;;;4.18;1.20;;;;;;;22.09;92.53;99634.63;4975385;28;20133;-89
2021/07/06 06:28:51;;;;;;;4.82;1.10;;;;;;;20.66;96.34;99632.53;4974401;28;20030;-89
2021/07/06 06:31:17;;;;;;;5.57;1.30;;;;;;;19.84;100.00;99636.75;4974876;28;20022;-88
2021/07/06 06:33:51;;;;;;;5.13;1.13;;;;;;;19.64;100.00;99638.13;4975192;28;20061;-89
2021/07/06 06:36:18;;;;;;;3.95;1.67;;;;;;;19.69;100.00;99630.78;4974766;28;20049;-89
2021/07/06 06:38:44;;;;;;;4.97;1.30;;;;;;;20.02;100.00;99640.72;4975667;28;20026;-89
2021/07/06 06:41:29;;;;;;;4.05;1.20;;;;;;;19.92;100.00;99632.63;4975047;28;20022;-89
2021/07/06 06:44:05;;;;;;;4.95;1.30;;;;;;;19.63;100.00;99632.03;4974479;28;20030;-89
2021/07/06 06:46:49;;;;;;;5.60;1.52;;;;;;;19.98;100.00;99628.69;4974458;28;20101;-89
2021/07/06 06:49:14;;;;;;;5.30;1.20;;;;;;;19.70;100.00;99635.09;4975227;28;20031;-88
2021/07/06 06:51:40;;;;;;;2.63;1.10;;;;;;;19.85;100.00;99620.84;4973942;28;20263;-87
2021/07/06 06:54:05;;;;;;;3.25;1.20;;;;;;;21.38;95.56;99627.03;4975654;28;20031;-87
2021/07/06 06:56:44;;;;;;;2.97;1.30;;;;;;;20.79;96.69;99633.28;4976730;28;20183;-87
2021/07/06 06:59:10;;;;;;;5.07;1.58;;;;;;;20.76;98.81;99637.94;4974423;28;20037;-88
2021/07/06 07:01:37;;;;;;;5.68;1.10;;;;;;;20.07;100.00;99643.00;4974781;28;20062;-88
2021/07/06 07:04:06;;;;;;;2.92;1.00;;;;;;;19.90;100.00;99650.31;4974423;28;20053;-89
2021/07/06 07:06:33;;;;;;;4.30;1.10;;;;;;;19.83;100.00;99646.44;4974052;28;20035;-88
2021/07/06 07:09:09;;;;;;;3.53;0.93;;;;;;;19.99;100.00;99654.09;4975218;28;20065;-89
2021/07/06 07:11:37;;;;;;;3.45;0.95;;;;;;;20.27;100.00;99660.00;4974687;28;20577;-88
2021/07/06 07:14:03;;;;;;;4.15;1.02;;;;;;;20.15;100.00;99654.66;4974186;28;20030;-88
2021/07/06 07:16:37;;;;;;;3.83;1.17;;;;;;;20.12;100.00;99654.88;4974378;28;20023;-89
2021/07/06 07:19:02;;;;;;;4.50;1.02;;;;;;;20.16;100.00;99655.50;4974617;28;20023;-90
2021/07/06 07:21:39;;;;;;;3.08;0.82;;;;;;;20.41;100.00;99659.81;4974066;28;20244;-88
2021/07/06 07:24:07;;;;;;;4.57;1.00;;;;;;;20.54;100.00;99655.38;4974946;28;20475;-89
2021/07/06 07:26:56;;;;;;;5.53;1.00;;;;;;;21.59;94.20;99643.00;4973900;28;20129;-88
2021/07/06 07:29:22;;;;;;;3.28;0.80;;;;;;;22.76;86.62;99644.97;4963907;28;20043;-89
2021/07/06 07:31:47;;;;;;;3.10;0.80;;;;;;;22.55;83.97;99652.03;4974250;28;20526;-88
2021/07/06 07:34:34;;;;;;;3.88;1.13;;;;;;;22.90;83.78;99646.44;4977084;28;20031;-88
2021/07/06 07:37:06;;;;;;;2.00;0.80;;;;;;;23.16;82.07;99636.34;4973448;28;20396;-89
2021/07/06 07:39:40;;;;;;;2.92;1.00;;;;;;;23.10;80.80;99645.63;4973920;28;20073;-89
2021/07/06 07:42:08;;;;;;;4.78;0.90;;;;;;;22.29;84.88;99647.94;4974652;28;20030;-88
2021/07/06 07:44:43;;;;;;;3.35;0.90;;;;;;;23.58;81.04;99630.94;4973898;28;20034;-88
2021/07/06 07:47:09;;;;;;;3.78;1.05;;;;;;;22.90;82.11;99641.16;4977002;28;20034;-88
2021/07/06 07:49:35;;;;;;;6.30;1.00;;;;;;;23.53;81.10;99631.34;4976737;28;20023;-88
2021/07/06 07:54:31;;;;;;;3.55;0.95;;;;;;;24.37;75.63;99633.63;4958092;29;20046;-87
2021/07/06 07:56:58;;;;;;;4.22;0.80;;;;;;;23.84;78.31;99636.63;4942025;29;20032;-87
2021/07/06 07:59:25;;;;;;;4.93;0.98;;;;;;;24.72;74.83;99632.25;4942129;29;20026;-88
2021/07/06 08:02:03;;;;;;;4.47;0.80;;;;;;;25.44;68.99;99613.09;4943033;28;20023;-89
2021/07/06 08:05:18;;;;;;;2.15;0.85;;;;;;;24.23;72.03;99626.94;4944899;29;20039;-89
2021/07/06 08:07:20;;;;;;;3.70;0.70;;;;;;;25.23;70.09;99621.28;4945647;29;20046;-90
2021/07/06 08:09:46;;;;;;;3.65;0.60;;;;;;;26.26;63.17;99616.66;4942767;29;20031;-90
2021/07/06 08:12:11;;;;;;;4.00;0.90;;;;;;;26.56;64.55;99626.09;4942311;29;20027;-89
2021/07/06 08:14:51;;;;;;;3.47;1.10;;;;;;;26.10;64.58;99621.84;4942766;29;20479;-89
2021/07/06 08:17:29;;;;;;;3.60;1.00;;;;;;;26.01;65.26;99620.06;4942897;29;20375;-89
2021/07/06 08:20:16;;;;;;;2.65;0.90;;;;;;;25.89;64.03;99612.34;4942416;29;20479;-89
2021/07/06 08:22:51;;;;;;;2.83;0.70;;;;;;;25.92;68.02;99621.81;4941746;29;20035;-89
2021/07/06 08:25:20;;;;;;;2.25;0.90;;;;;;;25.63;65.04;99609.50;4941325;29;20035;-89
2021/07/06 08:27:45;;;;;;;2.67;0.90;;;;;;;24.78;69.03;99602.50;4941329;29;20499;-88
2021/07/06 08:30:48;;;;;;;3.13;0.63;;;;;;;24.82;69.60;99600.44;4942041;29;20039;-88
2021/07/06 08:33:14;;;;;;;6.22;1.20;;;;;;;25.76;65.75;99616.28;4931214;29;20487;-89
2021/07/06 08:35:45;;;;;;;3.63;0.85;;;;;;;27.04;64.18;99614.16;4940676;29;20074;-89
2021/07/06 08:38:31;;;;;;;6.63;1.20;;;;;;;26.11;65.84;99626.19;4940973;29;20037;-89
2021/07/06 08:41:11;;;;;;;5.30;0.82;;;;;;;25.33;68.74;99620.41;4940468;29;20522;-88
2021/07/06 08:43:59;;;;;;;3.33;1.05;;;;;;;24.95;70.22;99620.34;4941715;29;20041;-89
2021/07/06 08:46:38;;;;;;;3.92;1.02;;;;;;;24.26;73.01;99625.81;4938924;29;20415;-89
2021/07/06 08:49:20;;;;;;;8.15;1.33;;;;;;;24.25;74.37;99632.09;4941082;29;20035;-89
2021/07/06 08:52:01;;;;;;;6.10;1.02;;;;;;;23.80;76.21;99643.16;4941925;28;20034;-88
2021/07/06 08:54:50;;;;;;;6.05;1.63;;;;;;;23.44;78.36;99658.63;4936858;29;20066;-89
2021/07/06 08:57:31;;;;;;;7.35;1.30;;;;;;;23.12;88.46;99672.81;4941948;29;20034;-88
2021/07/06 08:59:56;;;;;;;4.30;1.33;;;;;;;22.22;95.54;99672.31;4941296;29;20023;-87
2021/07/06 09:02:23;;;;;;;6.57;1.40;;;;;;;22.32;98.04;99664.47;4941357;29;20391;-87
2021/07/06 09:04:55;;;;;;;7.68;1.50;;;;;;;22.63;100.00;99665.44;4940782;29;20023;-87
2021/07/06 09:07:37;;;;;;;5.82;1.13;;;;;;;22.45;95.60;99662.53;4940711;29;20114;-87
2021/07/06 09:10:13;;;;;;;5.63;1.08;;;;;;;22.45;100.00;99662.53;4961264;29;20026;-87
2021/07/06 09:12:42;;;;;;;2.80;1.08;;;;;;;22.64;100.00;99665.31;4946322;29;20023;-87
2021/07/06 09:15:36;;;;;;;5.07;1.27;;;;;;;22.67;97.41;99675.66;4946675;29;20023;-87
2021/07/06 09:18:11;;;;;;;4.15;1.63;;;;;;;24.00;92.94;99660.78;4953183;29;20059;-86
2021/07/06 09:20:38;;;;;;;3.17;1.25;;;;;;;24.30;87.98;99664.34;4945342;29;20037;-86
2021/07/06 09:23:25;;;;;;;7.28;1.55;;;;;;;24.63;89.59;99672.88;4948251;29;20024;-86
2021/07/06 09:26:14;;;;;;;2.70;1.10;;;;;;;25.26;94.06;99667.94;4940435;29;20023;-86
2021/07/06 09:28:46;;;;;;;6.60;1.25;;;;;;;25.52;83.78;99664.63;4940280;29;20499;-87
2021/07/06 09:31:31;;;;;;;4.82;1.20;;;;;;;25.28;82.23;99660.66;4940327;29;20030;-87
2021/07/06 09:34:03;;;;;;;5.47;1.33;;;;;;;25.61;80.02;99658.44;4940282;29;20097;-87
2021/07/06 09:36:55;;;;;;;3.55;1.00;;;;;;;24.63;80.41;99656.97;4941274;29;20016;-87
2021/07/06 09:39:23;;;;;;;3.08;1.00;;;;;;;24.07;82.59;99646.00;4940639;29;20114;-87
2021/07/06 09:42:11;;;;;;;2.85;1.05;;;;;;;24.03;80.77;99634.03;4940795;28;20027;-87
2021/07/06 09:44:40;;;;;;;4.18;1.10;;;;;;;24.29;76.92;99644.09;4940172;29;20031;-87
2021/07/06 09:47:16;;;;;;;12.75;1.30;;;;;;;25.12;76.50;99636.50;4939821;29;20031;-87
2021/07/06 09:50:36;;;;;;;4.40;1.20;;;;;;;27.05;70.30;99638.94;4940624;29;20023;-88
2021/07/06 09:53:02;;;;;;;6.75;1.30;;;;;;;26.96;66.77;99626.56;4939625;29;20027;-88
2021/07/06 09:55:32;;;;;;;4.93;1.00;;;;;;;26.61;67.89;99629.16;4939810;29;20550;-88
2021/07/06 09:58:03;;;;;;;2.47;0.95;;;;;;;26.11;65.24;99621.69;4939740;29;20019;-88
2021/07/06 10:00:33;;;;;;;3.78;1.10;;;;;;;26.23;65.73;99616.13;4940671;29;20106;-88
2021/07/06 10:03:01;;;;;;;3.47;1.05;;;;;;;25.84;67.65;99619.91;4940271;29;20030;-87
2021/07/06 10:05:29;;;;;;;3.80;0.90;;;;;;;26.14;66.24;99631.19;4939889;29;20599;-88
2021/07/06 10:08:01;;;;;;;4.80;1.00;;;;;;;25.62;64.40;99626.44;4940277;29;20031;-87
2021/07/06 10:10:27;;;;;;;4.05;1.30;;;;;;;25.34;63.50;99628.25;4939936;29;20034;-88
2021/07/06 10:12:54;;;;;;;5.25;1.00;;;;;;;24.93;66.93;99635.56;4939082;29;20046;-87
2021/07/06 10:15:22;;;;;;;3.20;1.10;;;;;;;24.57;67.97;99638.00;4939368;29;20393;-87
2021/07/06 10:17:49;;;;;;;4.15;0.88;;;;;;;24.49;70.49;99647.63;4939660;29;20082;-87
2021/07/06 10:20:37;;;;;;;3.80;0.70;;;;;;;24.12;68.70;99651.75;4957179;29;20034;-87
2021/07/06 10:23:05;;;;;;;3.28;0.77;;;;;;;23.78;68.01;99653.06;4939793;29;20054;-87
2021/07/06 10:25:54;;;;;;;3.78;0.90;;;;;;;23.63;68.47;99658.69;4938405;29;20168;-88
2021/07/06 10:28:25;;;;;;;2.83;0.90;;;;;;;23.54;68.68;99656.84;4939768;29;20023;-88
2021/07/06 10:30:51;;;;;;;4.85;1.40;;;;;;;23.30;70.33;99658.97;4939762;29;20019;-88
2021/07/06 10:33:36;;;;;;;7.28;0.88;;;;;;;23.18;72.46;99667.00;4939029;29;20035;-88
2021/07/06 10:36:12;;;;;;;3.20;1.00;;;;;;;23.09;72.66;99659.84;4939338;29;20042;-88
2021/07/06 10:38:58;;;;;;;2.92;1.00;;;;;;;23.02;73.72;99660.47;4939393;29;20034;-88
2021/07/06 10:41:42;;;;;;;3.95;1.00;;;;;;;22.98;71.63;99655.44;4939044;29;20391;-88
2021/07/06 10:44:17;;;;;;;4.07;0.90;;;;;;;22.88;71.06;99651.03;4939806;29;20034;-87
2021/07/06 10:46:48;;;;;;;3.72;0.95;;;;;;;23.03;73.01;99663.00;4939499;29;20029;-89
2021/07/06 10:49:15;;;;;;;2.50;0.80;;;;;;;22.91;72.65;99661.34;4939660;29;20035;-87
2021/07/06 10:51:40;;;;;;;3.45;0.90;;;;;;;22.98;73.36;99659.91;4955878;28;20023;-87
2021/07/06 10:54:14;;;;;;;4.10;1.08;;;;;;;22.62;72.60;99669.88;4939308;29;20037;-87
2021/07/06 10:56:45;;;;;;;2.35;0.73;;;;;;;22.62;73.93;99640.81;4938637;29;20095;-88
2021/07/06 10:59:19;;;;;;;2.25;0.80;;;;;;;22.60;76.00;99634.84;4938685;29;20082;-87
2021/07/06 11:01:47;;;;;;;;;;;;;;;22.63;76.78;99639.88;4956210;28;20027;-87
2021/07/06 11:04:33;;;;;;;8.40;1.40;;;;;;;22.40;77.72;99654.97;4938554;29;19911;-87
2021/07/06 11:06:59;;;;;;;4.57;1.13;;;;;;;22.29;79.45;99652.34;4938390;29;20126;-88
2021/07/06 11:09:32;;;;;;;7.00;1.20;;;;;;;22.41;79.46;99661.91;4938582;29;20067;-88
2021/07/06 11:12:19;;;;;;;2.13;0.80;;;;;;;22.56;80.98;99672.22;4938629;29;20035;-87
2021/07/06 11:14:50;;;;;;;3.90;0.80;;;;;;;22.61;77.88;99672.69;4938366;29;20270;-88
2021/07/06 11:17:35;;;;;;;2.42;0.98;;;;;;;22.67;78.69;99674.81;4938516;29;20502;-88
2021/07/06 11:20:04;;;;;;;4.90;0.90;;;;;;;22.81;79.70;99669.19;4938714;29;20027;-87
2021/07/06 11:22:40;;;;;;;4.35;1.42;;;;;;;22.84;83.89;99644.31;4938136;29;20030;-87
2021/07/06 11:25:31;;;;;;;6.88;1.20;;;;;;;22.66;81.58;99644.03;4938231;29;20031;-88
2021/07/06 11:28:14;;;;;;;4.70;1.00;;;;;;;22.80;81.95;99664.06;4939232;29;20023;-88
2021/07/06 11:30:46;;;;;;;4.65;1.15;;;;;;;22.49;82.17;99664.78;4938324;29;20023;-88
2021/07/06 11:33:17;;;;;;;5.38;1.23;;;;;;;22.34;84.58;99644.91;4938594;29;20126;-88
2021/07/06 11:35:44;;;;;;;4.38;1.10;;;;;;;22.24;82.73;99652.75;4938171;29;20110;-89
2021/07/06 11:38:50;;;;;;;3.40;1.10;;;;;;;22.20;82.53;99639.94;4938363;29;20471;-89
2021/07/06 11:41:17;;;;;;;5.68;1.17;;;;;;;22.15;81.90;99634.97;4952832;29;20039;-90
2021/07/06 11:43:43;;;;;;;2.63;0.95;;;;;;;22.02;82.17;99611.34;4955249;28;20542;-87
2021/07/06 11:46:11;;;;;;;3.78;0.93;;;;;;;21.98;81.88;99617.88;4938742;29;20035;-89
2021/07/06 11:48:48;;;;;;;2.53;0.90;;;;;;;21.96;80.61;99625.06;4939407;29;20491;-90
2021/07/06 11:51:15;;;;;;;2.83;0.75;;;;;;;21.95;81.34;99619.88;4939229;29;20031;-89
2021/07/06 11:53:43;;;;;;;5.40;1.00;;;;;;;21.88;83.63;99630.09;4938328;29;20038;-89
2021/07/06 11:56:12;;;;;;;5.45;1.05;;;;;;;21.68;82.39;99642.25;4939281;29;20026;-89
2021/07/06 11:58:38;;;;;;;4.47;1.17;;;;;;;21.51;81.38;99624.28;4970295;28;20019;-88
2021/07/06 12:01:31;;;;;;;4.72;1.20;;;;;;;21.36;86.99;99621.88;4937944;29;20066;-89
2021/07/06 12:03:57;;;;;;;2.42;1.00;;;;;;;21.21;86.62;99619.56;4931433;29;20077;-88